Time;durP1;ratioP1;P1;durP2;ratioP2;P2;SDS_P1;SDS_P2;PMS_P1;PMS_P2;Temp;Humidity;BMP_temperature;BMP_pressure;BME280_temperature;BME280_humidity;BME280_pressure;Samples;Min_cycle;Max_cycle;Signal;HPM_P1;HPM_P2
2022/09/26 00:01:20;;;;;;;5.90;5.20;;;;;;;14.33;71.92;94807.59;5055129;28;20453;-82
2022/09/26 00:03:49;;;;;;;6.60;5.40;;;;;;;14.27;72.41;94823.06;5054435;28;20442;-83
2022/09/26 00:06:17;;;;;;;6.13;5.63;;;;;;;14.27;72.06;94812.50;5054211;28;20539;-82
2022/09/26 00:08:45;;;;;;;9.20;5.20;;;;;;;14.26;72.45;94810.84;5054530;28;20991;-83
2022/09/26 00:11:16;;;;;;;5.37;4.83;;;;;;;14.16;72.66;94804.81;5054384;28;20511;-83
2022/09/26 00:13:44;;;;;;;7.70;5.47;;;;;;;14.04;73.23;94821.06;5054129;28;20737;-85
2022/09/26 00:16:12;;;;;;;6.30;5.70;;;;;;;13.90;73.96;94818.00;5054200;28;20479;-83
2022/09/26 00:18:40;;;;;;;7.80;7.10;;;;;;;13.94;74.19;94815.88;5035301;28;20441;-83
2022/09/26 00:21:09;;;;;;;6.50;5.90;;;;;;;13.91;74.24;94811.75;5054573;28;20678;-83
2022/09/26 00:23:37;;;;;;;6.40;5.70;;;;;;;13.94;74.45;94813.25;5053608;28;20464;-83
2022/09/26 00:26:04;;;;;;;7.33;6.23;;;;;;;13.95;74.23;94807.81;5051929;28;20446;-84
2022/09/26 00:28:32;;;;;;;8.23;6.20;;;;;;;13.94;74.18;94808.78;5054022;28;20456;-83
2022/09/26 00:31:04;;;;;;;7.03;5.50;;;;;;;13.96;74.61;94800.72;5054023;28;20441;-83
2022/09/26 00:33:30;;;;;;;6.77;6.07;;;;;;;13.99;74.30;94810.97;5054174;28;20484;-83
2022/09/26 00:35:58;;;;;;;5.73;5.20;;;;;;;14.02;74.43;94808.03;5054352;28;20434;-83
2022/09/26 00:38:25;;;;;;;7.00;5.80;;;;;;;14.02;73.99;94812.47;5053967;28;20443;-83
2022/09/26 00:40:52;;;;;;;7.97;7.23;;;;;;;13.83;74.54;94813.47;5054375;28;20733;-83
2022/09/26 00:43:28;;;;;;;8.80;6.97;;;;;;;13.71;74.98;94804.13;5053725;28;20450;-83
2022/09/26 00:45:57;;;;;;;6.73;6.03;;;;;;;13.69;74.82;94812.19;5053659;28;20441;-83
2022/09/26 00:48:25;;;;;;;9.93;6.57;;;;;;;13.62;75.42;94806.69;5053900;28;20887;-83
2022/09/26 00:50:53;;;;;;;7.23;6.60;;;;;;;13.49;76.22;94806.22;5053545;28;20541;-83
2022/09/26 00:53:25;;;;;;;6.67;5.97;;;;;;;13.47;76.04;94795.00;5051300;28;21004;-83
2022/09/26 00:55:56;;;;;;;8.60;6.37;;;;;;;13.45;76.94;94807.50;5053194;28;20484;-84
2022/09/26 00:58:27;;;;;;;7.23;6.63;;;;;;;13.47;76.86;94802.91;5053804;28;20456;-82
2022/09/26 01:00:55;;;;;;;8.10;6.63;;;;;;;13.45;77.34;94804.88;5053497;28;20445;-83
2022/09/26 01:03:23;;;;;;;6.57;5.97;;;;;;;13.45;77.48;94802.25;5053506;28;21089;-84
2022/09/26 01:05:51;;;;;;;9.70;7.10;;;;;;;13.45;77.17;94794.31;5053048;28;20445;-83
2022/09/26 01:08:20;;;;;;;7.80;6.77;;;;;;;13.50;77.68;94791.25;5017993;28;20452;-83
2022/09/26 01:10:49;;;;;;;7.20;6.50;;;;;;;13.58;77.13;94794.78;5053198;28;20446;-83
2022/09/26 01:13:16;;;;;;;7.73;6.30;;;;;;;13.56;77.32;94777.44;5053075;28;21011;-82
2022/09/26 01:15:43;;;;;;;5.90;5.40;;;;;;;13.56;77.06;94780.09;5052896;28;20456;-81
2022/09/26 01:18:10;;;;;;;7.00;5.93;;;;;;;13.66;76.97;94791.41;5052945;28;20438;-82
2022/09/26 01:20:50;;;;;;;6.43;5.83;;;;;;;13.66;76.97;94775.59;5052807;28;20944;-83
2022/09/26 01:24:05;;;;;;;6.87;6.07;;;;;;;13.59;77.44;94785.91;5053049;28;20461;-83
2022/09/26 01:27:09;;;;;;;6.90;6.20;;;;;;;13.66;77.36;94780.03;5052961;28;20450;-83
2022/09/26 01:30:09;;;;;;;6.70;6.10;;;;;;;13.67;77.25;94771.13;5010696;28;20446;-83
2022/09/26 01:33:06;;;;;;;13.07;8.20;;;;;;;13.66;77.98;94774.75;5010445;28;20479;-83
2022/09/26 01:35:57;;;;;;;7.30;5.77;;;;;;;13.72;77.58;94777.59;5009827;28;20539;-83
2022/09/26 01:38:31;;;;;;;6.53;5.80;;;;;;;13.70;77.24;94774.28;5010698;28;20443;-82
2022/09/26 01:41:09;;;;;;;7.37;4.77;;;;;;;13.82;77.21;94782.78;4961893;28;20435;-82
2022/09/26 01:43:42;;;;;;;7.60;6.80;;;;;;;13.83;76.93;94785.28;5010690;28;20454;-84
2022/09/26 01:46:16;;;;;;;5.60;5.10;;;;;;;13.83;76.86;94776.53;5010294;28;20442;-84
2022/09/26 01:48:47;;;;;;;5.97;5.37;;;;;;;13.88;76.33;94784.84;5010758;28;20492;-85
2022/09/26 01:51:20;;;;;;;5.87;5.37;;;;;;;13.89;76.62;94775.94;5010548;28;20498;-82
2022/09/26 01:53:52;;;;;;;7.10;5.70;;;;;;;13.85;76.60;94782.47;5010276;28;20577;-83
2022/09/26 01:56:22;;;;;;;6.47;5.30;;;;;;;13.84;76.62;94768.47;4962833;28;20459;-82
2022/09/26 01:58:53;;;;;;;7.60;6.80;;;;;;;13.94;76.98;94774.50;5010397;28;20443;-83
2022/09/26 02:01:25;;;;;;;7.27;6.00;;;;;;;14.00;77.00;94769.59;5010691;28;20479;-83
2022/09/26 02:03:56;;;;;;;7.50;6.70;;;;;;;13.95;76.69;94759.50;5010557;28;20513;-82
2022/09/26 02:06:28;;;;;;;6.93;5.77;;;;;;;14.02;75.88;94763.16;5029157;28;20473;-83
2022/09/26 02:09:00;;;;;;;7.13;6.43;;;;;;;14.03;76.25;94758.72;5052067;28;20457;-83
2022/09/26 02:11:27;;;;;;;6.67;5.97;;;;;;;14.04;76.40;94755.94;5052376;28;20449;-83
2022/09/26 02:14:01;;;;;;;6.20;5.70;;;;;;;14.05;76.62;94751.47;5052167;28;20539;-83
2022/09/26 02:16:36;;;;;;;6.97;5.73;;;;;;;14.05;77.08;94747.03;5052185;28;20441;-84
2022/09/26 02:19:15;;;;;;;10.93;6.70;;;;;;;14.05;77.45;94754.94;5051966;28;20441;-83
2022/09/26 02:21:43;;;;;;;7.40;6.70;;;;;;;14.06;77.33;94763.69;5049763;28;20932;-83
2022/09/26 02:24:10;;;;;;;6.07;5.47;;;;;;;14.10;77.25;94754.47;5052377;28;20440;-83
2022/09/26 02:26:37;;;;;;;7.30;5.80;;;;;;;14.08;77.31;94752.00;5051816;28;20802;-82
2022/09/26 02:29:05;;;;;;;6.10;5.50;;;;;;;14.10;76.99;94750.03;5051942;28;20524;-83
2022/09/26 02:31:38;;;;;;;7.57;5.90;;;;;;;14.14;77.09;94745.25;5052059;28;20445;-83
2022/09/26 02:34:05;;;;;;;7.07;5.40;;;;;;;14.15;77.14;94731.91;5051870;28;20520;-82
2022/09/26 02:36:33;;;;;;;6.33;5.73;;;;;;;14.14;76.71;94732.06;5016911;28;20452;-82
2022/09/26 02:39:00;;;;;;;6.27;5.73;;;;;;;14.15;76.26;94731.91;5051797;28;20534;-83
2022/09/26 02:41:34;;;;;;;6.40;5.80;;;;;;;14.19;76.54;94728.00;5051650;28;20437;-82
2022/09/26 02:44:32;;;;;;;6.50;5.90;;;;;;;14.22;76.16;94719.78;5051808;28;20457;-83
2022/09/26 02:47:29;;;;;;;6.00;5.50;;;;;;;14.19;75.63;94706.88;5021039;28;20461;-83
2022/09/26 02:50:14;;;;;;;6.00;5.40;;;;;;;14.24;75.78;94709.88;5055848;28;20483;-83
2022/09/26 02:52:51;;;;;;;9.27;5.97;;;;;;;14.25;75.98;94706.25;5055792;28;20512;-83
2022/09/26 03:16:08;;;;;;;9.13;6.30;;;;;;;14.39;75.83;94709.28;5117914;27;20590;-76
2022/09/26 03:18:40;;;;;;;8.13;6.10;;;;;;;14.28;77.06;94710.41;5107632;28;20447;-76
2022/09/26 03:21:07;;;;;;;8.53;7.70;;;;;;;13.94;78.64;94702.44;5099483;28;20444;-76
2022/09/26 03:23:35;;;;;;;11.50;8.30;;;;;;;14.00;78.55;94714.19;5094895;28;20483;-76
2022/09/26 03:26:07;;;;;;;9.70;7.67;;;;;;;13.92;79.36;94707.06;5092367;28;21192;-79
2022/09/26 03:28:34;;;;;;;9.80;8.43;;;;;;;13.82;79.68;94711.56;5103540;28;20853;-76
2022/09/26 03:31:01;;;;;;;8.90;8.00;;;;;;;13.61;80.00;94704.03;5090319;28;20999;-76
2022/09/26 03:33:29;;;;;;;10.20;8.60;;;;;;;13.54;80.31;94710.88;5097556;28;20514;-76
2022/09/26 03:35:58;;;;;;;8.17;7.37;;;;;;;13.44;81.01;94702.22;5090589;28;20443;-77
2022/09/26 03:38:25;;;;;;;8.63;7.70;;;;;;;13.15;82.64;94692.72;5108469;28;20464;-76
2022/09/26 03:40:53;;;;;;;9.67;7.70;;;;;;;13.05;82.71;94693.78;5110769;28;20446;-76
2022/09/26 03:43:23;;;;;;;9.53;7.63;;;;;;;13.09;83.64;94693.31;5110837;28;20454;-75
2022/09/26 03:45:50;;;;;;;9.00;8.10;;;;;;;13.13;83.24;94694.69;5110823;28;20526;-76
2022/09/26 03:48:16;;;;;;;10.50;7.13;;;;;;;13.07;83.11;94689.19;5110952;28;20921;-74
2022/09/26 03:50:45;;;;;;;8.53;7.63;;;;;;;12.83;83.36;94677.41;5110464;28;20448;-76
2022/09/26 03:53:12;;;;;;;10.80;7.77;;;;;;;12.83;82.90;94666.88;5111244;28;20447;-76
2022/09/26 03:55:39;;;;;;;10.70;8.03;;;;;;;12.85;83.27;94677.28;5110594;28;20450;-76
2022/09/26 03:58:06;;;;;;;10.90;7.47;;;;;;;12.96;83.17;94690.22;5111015;28;20447;-76
2022/09/26 04:00:32;;;;;;;8.40;7.50;;;;;;;13.02;83.25;94690.47;5110295;28;20774;-76
2022/09/26 04:03:01;;;;;;;10.90;9.00;;;;;;;13.08;83.00;94690.84;5110255;28;20917;-76
2022/09/26 04:05:29;;;;;;;13.97;8.57;;;;;;;13.13;82.96;94691.22;5110398;28;20897;-76
2022/09/26 04:07:58;;;;;;;14.47;9.60;;;;;;;13.16;82.94;94693.53;5110761;28;21027;-76
2022/09/26 04:10:26;;;;;;;8.33;7.57;;;;;;;13.22;82.75;94690.34;5110310;28;20518;-76
2022/09/26 04:12:53;;;;;;;15.10;9.50;;;;;;;13.10;83.15;94678.34;5110526;28;20451;-77
2022/09/26 04:15:20;;;;;;;9.20;8.30;;;;;;;13.09;83.29;94674.88;5107035;28;20528;-76
2022/09/26 04:17:46;;;;;;;11.90;8.20;;;;;;;13.16;83.55;94680.38;5096776;28;20440;-75
2022/09/26 04:20:13;;;;;;;15.53;8.00;;;;;;;13.17;83.19;94685.53;5096111;28;20462;-76
2022/09/26 04:22:41;;;;;;;12.47;9.10;;;;;;;13.15;83.39;94692.72;5096053;28;20451;-76
2022/09/26 04:25:10;;;;;;;15.23;12.47;;;;;;;13.15;83.64;94694.53;5044276;28;20570;-76
2022/09/26 04:27:37;;;;;;;13.50;10.40;;;;;;;13.24;83.12;94683.09;5044585;28;20479;-77
2022/09/26 04:30:04;;;;;;;14.13;10.60;;;;;;;13.30;83.28;94700.97;5095750;28;20443;-77
2022/09/26 04:32:31;;;;;;;11.90;10.00;;;;;;;13.31;83.13;94703.44;5095887;28;20497;-76
2022/09/26 04:34:58;;;;;;;13.87;9.57;;;;;;;13.35;83.13;94709.25;5099735;28;20922;-75
2022/09/26 04:37:25;;;;;;;17.57;11.63;;;;;;;13.27;82.92;94709.97;5096092;28;20933;-76
2022/09/26 04:39:51;;;;;;;19.23;12.00;;;;;;;13.27;82.66;94717.06;5095942;28;20838;-76
2022/09/26 04:42:20;;;;;;;15.27;10.90;;;;;;;13.30;83.04;94717.59;5096574;28;20469;-77
2022/09/26 04:44:47;;;;;;;17.43;11.77;;;;;;;13.25;83.42;94714.56;5096181;28;20492;-76
2022/09/26 04:47:13;;;;;;;16.90;11.40;;;;;;;13.18;83.57;94712.69;5095910;28;20478;-76
2022/09/26 04:49:40;;;;;;;21.40;11.17;;;;;;;13.13;83.79;94710.47;5095645;28;20447;-76
2022/09/26 04:52:07;;;;;;;24.23;13.00;;;;;;;13.13;84.70;94709.66;5095958;28;20909;-77
2022/09/26 04:54:37;;;;;;;17.20;12.47;;;;;;;13.18;84.53;94695.06;5096053;28;20449;-77
2022/09/26 04:57:04;;;;;;;20.40;13.93;;;;;;;13.24;84.36;94688.38;5096320;28;20909;-77
2022/09/26 04:59:32;;;;;;;19.27;12.10;;;;;;;13.32;84.76;94699.00;5095498;28;20432;-76
2022/09/26 05:01:59;;;;;;;18.93;12.80;;;;;;;13.47;85.34;94681.66;5095696;28;20436;-76
2022/09/26 05:04:26;;;;;;;22.75;12.40;;;;;;;13.70;84.64;94695.19;5095597;28;20456;-76
2022/09/26 05:06:54;;;;;;;20.40;12.50;;;;;;;13.79;84.10;94706.63;5044160;28;20632;-76
2022/09/26 05:09:21;;;;;;;21.30;11.20;;;;;;;13.82;83.28;94706.31;5095883;28;20439;-76
2022/09/26 05:11:48;;;;;;;15.67;11.30;;;;;;;13.88;83.68;94697.78;5043730;28;20452;-76
2022/09/26 05:14:14;;;;;;;27.93;12.43;;;;;;;13.95;83.83;94697.00;5096165;28;20483;-76
2022/09/26 05:16:43;;;;;;;18.53;10.00;;;;;;;13.99;83.41;94681.69;5113703;28;20487;-76
2022/09/26 05:19:09;;;;;;;18.87;9.97;;;;;;;13.98;83.16;94679.22;5095733;28;21089;-75
2022/09/26 05:21:36;;;;;;;14.43;9.63;;;;;;;14.02;82.43;94670.00;5095344;28;20877;-76
2022/09/26 05:26:51;;;;;;;16.48;10.77;;;;;;;14.17;82.44;94679.84;5109869;28;20783;-75
2022/09/26 05:29:19;;;;;;;15.60;9.37;;;;;;;14.19;82.60;94667.31;5066266;28;20206;-76
2022/09/26 05:31:47;;;;;;;12.13;9.30;;;;;;;14.26;81.97;94673.59;5109152;28;20533;-77
2022/09/26 05:34:15;;;;;;;12.83;10.10;;;;;;;14.32;82.11;94671.31;5068985;28;20455;-78
2022/09/26 05:36:42;;;;;;;10.03;8.97;;;;;;;14.49;82.49;94662.53;5115955;28;20445;-76
2022/09/26 05:40:55;;;;;;;8.37;6.90;;;;;;;14.99;80.80;94653.72;5112557;28;20541;-76
2022/09/26 05:41:56;;;;;;;11.00;6.77;;;;;;;15.67;79.19;94664.88;5094649;28;20440;-76
2022/09/26 05:44:23;;;;;;;8.87;6.63;;;;;;;16.12;75.08;94658.16;5094925;28;20479;-76
2022/09/26 05:46:51;;;;;;;11.37;7.40;;;;;;;16.24;74.05;94650.72;5101790;28;20533;-75
2022/09/26 05:49:18;;;;;;;23.50;7.90;;;;;;;16.23;74.32;94654.34;5097323;28;20484;-76
2022/09/26 05:51:45;;;;;;;13.50;7.60;;;;;;;16.27;74.78;94668.91;5102537;28;20448;-76
2022/09/26 05:54:12;;;;;;;13.17;8.33;;;;;;;16.30;74.70;94665.91;5094584;28;20450;-75
2022/09/26 05:56:38;;;;;;;12.13;9.40;;;;;;;16.37;74.28;94664.22;5106657;28;20448;-75
2022/09/26 05:59:05;;;;;;;18.70;9.30;;;;;;;16.40;74.47;94680.59;5113587;28;20794;-76
2022/09/26 06:01:33;;;;;;;31.77;17.63;;;;;;;16.08;74.68;94675.38;5113998;28;20448;-76
2022/09/26 06:04:02;;;;;;;29.70;15.60;;;;;;;16.07;75.35;94677.22;5113899;28;20437;-75
2022/09/26 06:06:29;;;;;;;21.43;14.60;;;;;;;15.74;75.98;94678.25;5113194;28;20512;-75
2022/09/26 06:08:57;;;;;;;23.47;12.43;;;;;;;15.17;79.46;94671.09;5113560;28;20553;-76
2022/09/26 06:11:29;;;;;;;43.40;15.43;;;;;;;15.22;80.01;94677.72;5114013;28;20462;-76
2022/09/26 06:13:59;;;;;;;23.23;15.60;;;;;;;15.10;79.99;94682.50;5113660;28;20463;-76
2022/09/26 06:16:26;;;;;;;36.70;16.00;;;;;;;15.09;80.00;94672.91;5074389;28;20444;-76
2022/09/26 06:18:54;;;;;;;31.07;15.30;;;;;;;15.20;79.99;94688.44;5092824;28;20789;-76
2022/09/26 06:21:22;;;;;;;22.73;14.90;;;;;;;15.25;79.72;94691.41;5091082;28;20443;-75
2022/09/26 06:23:49;;;;;;;24.80;14.63;;;;;;;15.27;78.81;94685.97;5091521;28;20432;-76
2022/09/26 06:26:22;;;;;;;26.60;16.60;;;;;;;15.24;77.86;94695.06;5092562;28;20491;-76
2022/09/26 06:28:53;;;;;;;25.70;14.60;;;;;;;15.13;77.85;94698.03;5092612;28;20436;-76
2022/09/26 06:31:20;;;;;;;26.73;15.37;;;;;;;15.09;78.70;94688.78;5092524;28;20449;-76
2022/09/26 06:33:50;;;;;;;23.23;14.30;;;;;;;14.96;78.90;94686.56;5093050;28;20535;-76
2022/09/26 06:36:17;;;;;;;22.00;13.50;;;;;;;15.04;79.69;94693.72;5092450;28;20455;-76
2022/09/26 06:38:45;;;;;;;23.50;13.83;;;;;;;15.11;80.13;94690.25;5093503;28;20459;-77
2022/09/26 06:41:15;;;;;;;33.43;15.17;;;;;;;15.19;78.25;94695.56;5075120;28;20442;-76
2022/09/26 06:43:43;;;;;;;23.17;14.17;;;;;;;15.20;78.29;94677.88;5093692;28;20752;-76
2022/09/26 06:46:10;;;;;;;22.23;13.20;;;;;;;15.12;76.57;94675.22;5093896;28;20985;-76
2022/09/26 06:48:37;;;;;;;26.43;15.13;;;;;;;15.20;78.34;94672.59;5094226;28;20451;-77
2022/09/26 06:51:04;;;;;;;32.10;12.00;;;;;;;15.52;77.44;94670.94;5041640;28;20448;-76
2022/09/26 06:53:33;;;;;;;14.53;10.63;;;;;;;15.70;74.80;94674.28;5093603;28;20814;-78
2022/09/26 06:56:03;;;;;;;15.07;9.80;;;;;;;15.80;73.01;94677.59;5093602;28;20444;-77
2022/09/26 06:58:30;;;;;;;17.83;8.80;;;;;;;16.23;71.23;94686.13;5093997;28;20983;-76
2022/09/26 07:00:59;;;;;;;13.23;7.80;;;;;;;16.80;69.93;94685.94;5058384;28;20920;-76
2022/09/26 07:03:25;;;;;;;17.07;7.77;;;;;;;17.41;66.30;94686.91;5093440;28;20493;-77
2022/09/26 07:05:54;;;;;;;15.30;9.10;;;;;;;18.04;64.67;94683.91;5093443;28;20491;-76
2022/09/26 07:08:21;;;;;;;14.53;9.00;;;;;;;18.61;61.67;94674.53;5093776;28;20459;-77
2022/09/26 07:10:47;;;;;;;17.63;11.40;;;;;;;19.19;60.02;94687.75;5057873;28;20428;-76
2022/09/26 07:13:18;;;;;;;15.10;11.20;;;;;;;19.75;58.64;94695.09;5093434;28;20914;-77
2022/09/26 07:15:46;;;;;;;22.80;12.47;;;;;;;20.19;56.50;94681.50;5058141;28;20475;-77
2022/09/26 07:18:16;;;;;;;15.10;10.67;;;;;;;20.55;54.90;94675.25;5093970;28;20481;-77
2022/09/26 07:20:45;;;;;;;18.10;9.43;;;;;;;20.90;53.15;94674.19;5093302;28;20973;-76
2022/09/26 07:23:13;;;;;;;18.00;10.90;;;;;;;21.31;51.76;94678.66;5093401;28;20444;-76
2022/09/26 07:25:40;;;;;;;9.37;7.27;;;;;;;21.50;48.54;94677.91;5093469;28;20472;-76
2022/09/26 07:28:09;;;;;;;11.20;6.43;;;;;;;21.58;47.49;94680.38;5093649;28;20451;-77
2022/09/26 07:30:37;;;;;;;9.73;6.23;;;;;;;21.52;48.23;94665.16;5093542;28;20907;-76
2022/09/26 07:33:05;;;;;;;11.40;7.33;;;;;;;21.51;48.56;94673.38;5041547;28;20846;-76
2022/09/26 07:35:34;;;;;;;15.17;7.73;;;;;;;21.44;49.40;94676.03;5093437;28;20849;-75
2022/09/26 07:38:01;;;;;;;11.47;9.23;;;;;;;21.12;47.85;94676.75;5093752;28;20452;-76
2022/09/26 07:40:28;;;;;;;9.70;5.67;;;;;;;20.77;47.83;94670.63;5093079;28;20440;-76
2022/09/26 07:42:59;;;;;;;6.40;5.80;;;;;;;20.46;50.40;94665.72;5056604;28;20829;-77
2022/09/26 07:50:57;;;;;;;8.60;5.33;;;;;;;19.21;52.57;94681.41;5093572;28;20411;-77
2022/09/26 07:53:25;;;;;;;8.43;5.30;;;;;;;19.04;53.68;94678.97;5095890;28;20519;-76
2022/09/26 07:56:09;;;;;;;11.77;6.20;;;;;;;18.92;53.69;94677.81;5096341;28;20447;-76
2022/09/26 07:58:38;;;;;;;6.30;4.90;;;;;;;18.79;54.76;94665.19;5095848;28;20816;-76
2022/09/26 08:01:10;;;;;;;9.07;6.50;;;;;;;18.53;55.36;94647.03;5096388;28;20592;-75
2022/09/26 08:03:38;;;;;;;16.70;7.07;;;;;;;18.53;57.01;94649.69;5060210;28;20435;-77
2022/09/26 08:06:06;;;;;;;10.93;6.20;;;;;;;18.13;57.02;94647.47;5095873;28;20829;-76
2022/09/26 08:08:33;;;;;;;14.43;6.30;;;;;;;18.01;57.36;94643.63;5095386;28;20922;-75
2022/09/26 08:11:01;;;;;;;21.03;6.80;;;;;;;18.07;58.20;94635.75;5096192;28;20863;-76
2022/09/26 08:13:30;;;;;;;21.40;6.23;;;;;;;18.14;57.53;94631.38;5095537;28;20849;-76
2022/09/26 08:16:03;;;;;;;7.60;6.07;;;;;;;18.47;55.94;94626.50;5095347;28;20479;-76
2022/09/26 08:18:30;;;;;;;11.63;6.13;;;;;;;18.81;56.08;94614.50;5095502;28;20446;-76
2022/09/26 08:20:58;;;;;;;6.17;5.53;;;;;;;19.12;54.16;94611.56;5059821;28;20451;-75
2022/09/26 08:23:25;;;;;;;6.20;5.30;;;;;;;19.48;54.38;94611.47;5095609;28;20444;-73
2022/09/26 08:25:52;;;;;;;12.33;6.50;;;;;;;19.87;53.38;94621.66;5095202;28;20487;-76
2022/09/26 08:28:18;;;;;;;8.97;7.10;;;;;;;20.17;52.64;94608.94;5095584;28;20858;-75
2022/09/26 08:30:45;;;;;;;15.90;6.80;;;;;;;20.39;52.25;94602.53;5095676;28;20440;-76
2022/09/26 08:33:12;;;;;;;18.10;6.30;;;;;;;20.67;51.67;94591.81;5095263;28;20448;-76
2022/09/26 08:35:39;;;;;;;19.63;7.13;;;;;;;20.98;50.33;94593.97;5095098;28;20539;-76
2022/09/26 08:38:09;;;;;;;17.97;6.77;;;;;;;21.20;49.85;94586.63;5095680;28;20801;-76
2022/09/26 08:40:48;;;;;;;19.80;6.90;;;;;;;21.40;49.23;94589.38;5042648;28;20432;-76
2022/09/26 08:43:30;;;;;;;8.33;6.90;;;;;;;21.50;48.81;94591.63;5095193;28;20452;-76
2022/09/26 08:49:14;;;;;;;11.60;7.40;;;;;;;21.95;47.74;94581.97;5005892;28;20426;-77
2022/09/26 08:51:45;;;;;;;12.70;5.87;;;;;;;22.01;45.86;94586.50;5032550;28;20996;-76
2022/09/26 08:54:18;;;;;;;7.50;5.50;;;;;;;22.13;45.82;94579.50;5032520;28;20443;-76
2022/09/26 08:56:48;;;;;;;7.33;6.13;;;;;;;22.28;45.74;94575.78;5032836;28;20447;-76
2022/09/26 08:59:25;;;;;;;9.43;5.20;;;;;;;22.25;46.63;94577.00;5032559;28;20446;-76
2022/09/26 09:01:54;;;;;;;8.97;6.10;;;;;;;22.35;46.15;94580.06;5032268;28;20449;-76
2022/09/26 09:04:26;;;;;;;6.67;5.97;;;;;;;22.21;45.38;94575.78;5032511;28;20442;-76
2022/09/26 09:07:02;;;;;;;5.87;5.27;;;;;;;22.27;45.91;94574.97;5032335;28;21098;-76
2022/09/26 09:09:30;;;;;;;9.37;5.80;;;;;;;22.12;45.61;94571.69;5032368;28;20734;-75
2022/09/26 09:12:09;;;;;;;16.43;5.93;;;;;;;22.10;46.88;94569.22;5032262;28;20455;-76
2022/09/26 09:15:01;;;;;;;17.57;5.80;;;;;;;22.26;47.76;94573.28;5031866;28;20486;-76
2022/09/26 09:17:36;;;;;;;9.90;5.30;;;;;;;22.22;47.35;94577.41;5031988;28;20928;-77
2022/09/26 09:20:15;;;;;;;10.20;5.77;;;;;;;22.19;46.59;94562.63;5032019;28;20454;-76
2022/09/26 09:23:07;;;;;;;7.20;5.93;;;;;;;22.10;46.73;94560.41;5032006;28;20454;-75
2022/09/26 09:25:47;;;;;;;5.93;5.33;;;;;;;22.14;46.22;94553.59;5064750;28;20483;-75
2022/09/26 09:28:26;;;;;;;7.60;4.73;;;;;;;22.29;45.50;94566.72;5094783;28;20844;-77
2022/09/26 09:30:59;;;;;;;6.10;5.27;;;;;;;22.49;45.16;94556.78;5094406;28;20451;-76
2022/09/26 09:33:29;;;;;;;8.23;5.00;;;;;;;22.69;45.80;94565.56;5058509;28;20446;-76
2022/09/26 09:36:00;;;;;;;11.03;6.50;;;;;;;22.84;45.93;94560.78;5094177;28;20930;-76
2022/09/26 09:38:31;;;;;;;7.47;5.57;;;;;;;22.88;45.11;94557.69;5094478;28;20905;-76
2022/09/26 09:41:02;;;;;;;11.30;6.90;;;;;;;23.01;44.84;94557.59;5094111;28;20451;-76
2022/09/26 09:43:35;;;;;;;5.70;5.20;;;;;;;23.10;45.26;94556.31;5094112;28;20436;-76
2022/09/26 09:46:04;;;;;;;6.23;5.63;;;;;;;23.21;44.35;94554.81;5093899;28;20475;-77
2022/09/26 09:48:31;;;;;;;8.20;4.60;;;;;;;23.26;43.99;94541.59;5094276;28;20553;-77
2022/09/26 09:51:12;;;;;;;12.80;5.87;;;;;;;23.34;44.24;94542.16;5093909;28;20444;-76
2022/09/26 09:54:10;;;;;;;11.23;5.50;;;;;;;23.23;43.75;94526.78;5093933;28;20447;-77
2022/09/26 09:56:47;;;;;;;9.53;5.70;;;;;;;23.04;44.41;94522.38;5093879;28;20452;-76
2022/09/26 09:59:40;;;;;;;11.27;5.63;;;;;;;22.77;44.50;94527.84;5093476;28;20448;-76
2022/09/26 10:02:23;;;;;;;12.53;5.90;;;;;;;22.62;45.76;94535.34;5093539;28;20444;-76
2022/09/26 10:04:59;;;;;;;9.90;5.30;;;;;;;22.46;46.64;94506.41;5093512;28;20448;-76
2022/09/26 10:07:27;;;;;;;7.13;5.63;;;;;;;22.45;46.86;94505.56;5093187;28;20475;-75
2022/09/26 10:09:53;;;;;;;9.70;4.83;;;;;;;22.39;48.26;94498.41;5093438;28;20836;-76
2022/09/26 10:12:29;;;;;;;9.77;6.00;;;;;;;22.27;46.67;94499.28;5093572;28;20448;-76
2022/09/26 10:15:00;;;;;;;23.27;7.83;;;;;;;22.20;46.88;94496.63;5092942;28;20483;-77
2022/09/26 10:17:28;;;;;;;10.03;7.33;;;;;;;22.19;48.15;94503.81;5093549;28;20470;-76
2022/09/26 10:19:55;;;;;;;11.00;6.13;;;;;;;22.16;48.63;94508.78;5093549;28;20487;-77
2022/09/26 10:22:31;;;;;;;11.60;6.03;;;;;;;22.16;48.97;94517.59;5093391;28;20444;-76
2022/09/26 10:25:04;;;;;;;17.83;6.27;;;;;;;22.13;48.53;94519.88;5093194;28;20551;-76
2022/09/26 10:27:36;;;;;;;10.40;6.20;;;;;;;22.10;49.91;94505.09;5093156;28;20479;-74
2022/09/26 10:30:08;;;;;;;6.97;6.03;;;;;;;22.12;50.39;94497.69;5092938;28;21017;-76
2022/09/26 10:32:46;;;;;;;8.30;4.63;;;;;;;22.15;51.07;94491.09;5093244;28;20784;-76
2022/09/26 10:35:18;;;;;;;9.20;6.10;;;;;;;22.16;50.25;94501.56;5093232;28;20486;-76
2022/09/26 10:37:50;;;;;;;22.47;5.70;;;;;;;22.14;49.72;94490.28;5093157;28;20806;-78
2022/09/26 10:40:44;;;;;;;8.10;5.53;;;;;;;22.16;50.40;94484.72;5093012;28;20882;-76
2022/09/26 10:43:30;;;;;;;5.63;4.93;;;;;;;22.14;50.08;94481.44;5062502;28;20871;-76
2022/09/26 10:46:05;;;;;;;10.23;5.90;;;;;;;22.16;48.79;94472.19;5092690;28;20541;-75
2022/09/26 10:48:46;;;;;;;8.20;5.03;;;;;;;22.14;48.75;94474.25;5092840;28;20451;-76
2022/09/26 10:51:21;;;;;;;11.87;5.60;;;;;;;22.19;49.87;94474.41;5092555;28;20530;-75
2022/09/26 10:53:51;;;;;;;7.87;5.30;;;;;;;22.23;51.06;94461.44;5092780;28;20439;-76
2022/09/26 10:56:25;;;;;;;7.40;6.53;;;;;;;22.32;50.85;94465.53;5093008;28;20472;-76
2022/09/26 10:58:58;;;;;;;11.53;6.70;;;;;;;22.35;51.44;94462.44;5092989;28;20451;-77
2022/09/26 11:01:28;;;;;;;1.40;1.07;;;;;;;22.31;50.96;94447.03;5092733;28;20482;-75
2022/09/26 11:04:00;;;;;;;11.60;5.27;;;;;;;22.33;51.07;94440.44;5092889;28;20440;-76
2022/09/26 11:06:31;;;;;;;14.67;6.27;;;;;;;22.38;51.57;94432.59;5092893;28;20487;-76
2022/09/26 11:09:02;;;;;;;7.87;5.40;;;;;;;22.45;51.21;94440.59;5092553;28;20489;-76
2022/09/26 11:11:34;;;;;;;12.97;6.03;;;;;;;22.54;50.95;94444.63;5092614;28;20458;-76
2022/09/26 11:14:06;;;;;;;19.60;6.23;;;;;;;22.62;49.49;94430.22;5092309;28;20486;-76
2022/09/26 11:16:51;;;;;;;11.33;4.93;;;;;;;22.66;50.56;94431.41;5092893;28;20479;-77
2022/09/26 11:19:31;;;;;;;7.83;5.47;;;;;;;22.72;50.15;94419.84;5092653;28;20526;-77
2022/09/26 11:22:08;;;;;;;8.93;4.97;;;;;;;22.74;50.28;94421.28;5092370;28;20440;-76
2022/09/26 11:24:46;;;;;;;10.47;6.67;;;;;;;22.88;49.62;94421.22;5092483;28;20443;-74
2022/09/26 11:27:25;;;;;;;10.40;7.20;;;;;;;22.99;50.32;94429.38;5096341;28;20491;-77
2022/09/26 11:30:00;;;;;;;15.53;5.60;;;;;;;23.07;49.27;94423.72;5061451;28;20439;-76
2022/09/26 11:32:31;;;;;;;11.93;5.57;;;;;;;23.14;48.83;94415.66;5096505;28;20440;-76
2022/09/26 11:35:02;;;;;;;5.93;4.53;;;;;;;23.17;48.15;94404.53;5096427;28;20443;-76
2022/09/26 11:37:44;;;;;;;6.40;4.77;;;;;;;23.25;48.63;94395.38;5096345;28;20953;-76
2022/09/26 11:40:20;;;;;;;6.27;4.67;;;;;;;23.31;49.22;94406.03;5096233;28;20519;-77
2022/09/26 11:43:00;;;;;;;6.10;5.60;;;;;;;23.37;48.16;94397.09;5096423;28;20857;-77
2022/09/26 11:45:41;;;;;;;6.20;4.40;;;;;;;23.42;49.00;94386.56;5043740;28;20436;-76
2022/09/26 11:48:37;;;;;;;4.37;3.87;;;;;;;23.51;48.13;94373.69;5096480;28;20502;-76
2022/09/26 11:51:18;;;;;;;8.00;4.37;;;;;;;23.52;47.82;94380.69;5013710;28;21028;-77
2022/09/26 11:54:08;;;;;;;6.83;4.13;;;;;;;23.55;48.22;94369.53;5013741;28;20459;-77
2022/09/26 11:56:50;;;;;;;6.97;4.60;;;;;;;23.52;48.19;94355.78;5013705;28;20858;-75
2022/09/26 11:59:42;;;;;;;5.60;4.47;;;;;;;23.56;48.94;94340.91;5013477;28;20447;-76
2022/09/26 12:02:45;;;;;;;9.43;4.30;;;;;;;23.63;47.90;94342.47;5013458;28;20463;-76
2022/09/26 12:05:28;;;;;;;7.37;4.47;;;;;;;23.70;49.36;94345.06;5013328;28;20450;-75
2022/09/26 12:08:10;;;;;;;9.37;4.33;;;;;;;23.74;48.84;94346.28;5013371;28;20487;-75
2022/09/26 12:10:51;;;;;;;7.63;3.70;;;;;;;23.76;49.42;94350.38;5013236;28;20850;-76
2022/09/26 12:13:33;;;;;;;5.63;4.27;;;;;;;23.79;49.81;94349.91;5013251;28;20942;-75
2022/09/26 12:16:11;;;;;;;7.80;4.17;;;;;;;23.83;49.20;94349.47;5012771;28;20471;-75
2022/09/26 12:18:48;;;;;;;4.10;3.70;;;;;;;23.86;48.33;94344.47;5013139;28;20453;-76
2022/09/26 12:21:30;;;;;;;6.07;3.90;;;;;;;23.85;48.64;94339.34;5013081;28;20439;-75
2022/09/26 12:24:06;;;;;;;7.30;3.70;;;;;;;23.87;49.47;94346.13;5013129;28;20800;-76